Time;durP1;ratioP1;P1;durP2;ratioP2;P2;SDS_P1;SDS_P2;PMS_P1;PMS_P2;Temp;Humidity;BMP_temperature;BMP_pressure;BME280_temperature;BME280_humidity;BME280_pressure;Samples;Min_cycle;Max_cycle;Signal;HPM_P1;HPM_P2
2021/06/10 00:00:30;;;;;;;1.80;1.00;;;17.60;99.90;;;17.28;78.08;101947.75;4168433;28;20034;-68
2021/06/10 00:02:31;;;;;;;1.10;0.80;;;17.50;99.90;;;17.29;78.54;101944.09;4168878;28;20496;-68
2021/06/10 00:04:32;;;;;;;1.63;1.10;;;17.40;99.90;;;17.15;79.08;101931.44;4168314;28;20081;-68
2021/06/10 00:06:32;;;;;;;1.50;1.15;;;17.40;99.90;;;17.28;78.16;101934.41;4180335;28;20086;-68
2021/06/10 00:08:34;;;;;;;1.85;0.90;;;17.40;99.90;;;17.29;78.58;101943.25;4168640;28;20053;-68
2021/06/10 00:10:38;;;;;;;1.50;0.90;;;17.40;99.90;;;17.29;78.30;101938.75;4157254;28;20029;-68
2021/06/10 00:12:40;;;;;;;1.95;0.90;;;17.40;99.90;;;17.24;78.36;101932.25;4168535;28;20037;-68
2021/06/10 00:14:44;;;;;;;2.55;1.52;;;17.30;99.90;;;16.96;79.39;101923.81;4168305;28;20033;-68
2021/06/10 00:16:45;;;;;;;1.63;1.00;;;17.30;99.90;;;16.95;79.56;101911.47;4181685;28;20571;-68
2021/06/10 00:18:48;;;;;;;1.50;0.90;;;17.30;99.90;;;16.96;79.80;101924.66;4168323;28;20038;-68
2021/06/10 00:20:50;;;;;;;2.17;1.45;;;17.20;99.90;;;16.85;80.19;101913.47;4168505;28;20043;-68
2021/06/10 00:22:54;;;;;;;1.63;0.90;;;17.10;99.90;;;16.78;80.79;101920.50;4168384;28;20022;-68
2021/06/10 00:24:55;;;;;;;1.27;1.00;;;17.00;99.90;;;16.82;80.80;101924.47;4168279;28;20396;-69
2021/06/10 00:26:55;;;;;;;1.50;0.98;;;17.00;99.90;;;16.79;81.19;101924.81;4167232;28;20030;-69
2021/06/10 00:28:56;;;;;;;4.82;1.75;;;17.00;99.90;;;16.66;81.18;101922.69;4168296;28;20033;-68
2021/06/10 00:30:59;;;;;;;1.80;0.95;;;17.00;99.90;;;16.58;81.90;101923.50;4168459;28;20563;-68
2021/06/10 00:33:01;;;;;;;1.35;1.02;;;16.90;99.90;;;16.42;82.80;101910.16;4181903;28;20044;-68
2021/06/10 00:35:04;;;;;;;2.17;1.20;;;16.80;99.90;;;16.40;83.08;101920.13;4200365;28;20566;-68
2021/06/10 00:37:04;;;;;;;2.13;1.02;;;16.70;99.90;;;16.41;82.87;101913.81;4167304;28;20068;-68
2021/06/10 00:39:06;;;;;;;2.25;0.90;;;16.70;99.90;;;16.52;82.96;101918.78;4163884;28;20081;-68
2021/06/10 00:41:07;;;;;;;2.03;0.98;;;16.70;99.90;;;16.46;83.24;101916.78;4168133;28;20032;-69
2021/06/10 00:43:08;;;;;;;1.95;0.80;;;16.70;99.90;;;16.38;83.95;101922.13;4170705;28;20014;-68
2021/06/10 00:45:14;;;;;;;3.80;0.80;;;16.60;99.90;;;16.42;83.93;101920.81;4168266;28;20033;-68
2021/06/10 00:47:15;;;;;;;4.93;1.02;;;16.60;99.90;;;16.24;84.23;101921.94;4168642;28;20060;-68
2021/06/10 00:49:16;;;;;;;2.03;1.15;;;16.60;99.90;;;16.19;84.97;101925.06;4168066;28;20033;-69
2021/06/10 00:51:17;;;;;;;3.63;1.23;;;16.50;99.90;;;16.23;85.25;101930.91;4167325;28;20041;-68
2021/06/10 00:53:21;;;;;;;1.73;0.90;;;16.50;99.90;;;16.31;84.83;101913.13;4177434;28;20029;-68
2021/06/10 00:55:23;;;;;;;1.30;1.05;;;16.50;99.90;;;16.17;85.48;101915.59;4171493;28;20081;-68
2021/06/10 00:57:24;;;;;;;1.45;1.20;;;16.40;99.90;;;16.15;85.67;101907.78;4168229;28;20034;-69
2021/06/10 00:59:25;;;;;;;1.33;1.20;;;16.40;99.90;;;16.18;85.66;101910.13;4168278;28;20052;-69
2021/06/10 01:01:27;;;;;;;1.83;1.33;;;16.40;99.90;;;16.19;85.40;101913.63;4178117;28;20055;-68
2021/06/10 01:03:28;;;;;;;2.20;1.27;;;16.40;99.90;;;16.55;83.75;101913.16;4183326;28;20059;-68
2021/06/10 01:05:29;;;;;;;1.40;1.02;;;16.50;99.90;;;16.51;84.35;101909.16;4168576;28;20025;-68
2021/06/10 01:08:15;;;;;;;2.45;1.13;;;16.60;99.90;;;16.37;84.68;101900.97;4168337;28;20033;-69
2021/06/10 01:10:54;;;;;;;;;;;16.60;99.90;;;16.24;85.14;101901.47;4168327;28;20029;-68
2021/06/10 01:13:03;;;;;;;2.45;1.40;;;16.50;99.90;;;16.42;83.86;101896.00;4152558;28;19909;-68
2021/06/10 01:15:12;;;;;;;1.95;1.67;;;16.60;99.90;;;16.41;84.41;101895.16;4166521;28;20036;-68
2021/06/10 01:17:16;;;;;;;1.77;1.30;;;16.60;99.90;;;16.27;84.62;101885.19;4167067;28;20038;-69
2021/06/10 01:19:42;;;;;;;3.15;1.40;;;16.60;99.90;;;16.34;84.54;101895.97;4166837;28;20053;-69
2021/06/10 01:21:44;;;;;;;2.40;1.10;;;16.60;99.90;;;16.31;84.66;101904.28;4168165;28;20068;-69
2021/06/10 01:23:50;;;;;;;1.38;1.10;;;16.60;99.90;;;16.45;84.01;101891.19;4166626;28;20112;-69
2021/06/10 01:26:19;;;;;;;2.53;1.60;;;16.60;99.90;;;16.49;83.98;101899.66;4167750;28;20124;-69
2021/06/10 01:28:36;;;;;;;3.30;1.48;;;16.60;99.90;;;16.52;84.25;101894.81;4141751;28;20424;-68
2021/06/10 01:30:59;;;;;;;1.80;1.50;;;16.70;99.90;;;16.57;83.78;101897.03;4167030;28;20092;-69
2021/06/10 01:33:20;;;;;;;1.70;1.60;;;16.70;99.90;;;16.52;83.86;101889.50;4167108;28;20032;-68
2021/06/10 01:35:25;;;;;;;1.55;1.20;;;16.70;99.90;;;16.63;83.66;101890.19;4167629;28;20037;-68
2021/06/10 01:37:27;;;;;;;3.45;1.40;;;16.80;99.90;;;16.76;83.43;101891.34;4166726;28;20132;-69
2021/06/10 01:39:29;;;;;;;1.67;1.27;;;16.80;99.90;;;16.72;83.26;101870.53;4168149;28;20034;-68
2021/06/10 01:41:31;;;;;;;2.60;1.65;;;16.90;99.90;;;16.72;83.26;101874.06;4177999;28;20022;-69
2021/06/10 01:43:36;;;;;;;3.05;1.63;;;16.90;99.90;;;16.77;83.86;101878.84;4185370;28;20025;-69
2021/06/10 01:45:38;;;;;;;2.58;1.52;;;17.00;99.90;;;16.68;84.10;101866.53;4183168;28;20021;-69
2021/06/10 01:47:44;;;;;;;2.78;1.40;;;17.00;99.90;;;16.51;84.76;101857.72;4166552;28;20117;-69
2021/06/10 01:49:45;;;;;;;3.15;1.40;;;16.90;99.90;;;16.66;84.33;101865.88;4199170;28;20025;-69
2021/06/10 01:51:48;;;;;;;1.85;1.50;;;16.90;99.90;;;16.63;84.57;101852.91;4167984;28;20112;-68
2021/06/10 01:53:50;;;;;;;2.90;1.30;;;16.90;99.90;;;16.47;85.30;101851.88;4199644;28;20051;-69
2021/06/10 01:55:54;;;;;;;3.38;1.40;;;16.80;99.90;;;16.65;84.74;101861.56;4167754;28;20116;-69
2021/06/10 01:57:58;;;;;;;1.38;1.17;;;16.80;99.90;;;16.50;85.45;101864.03;4167874;28;20030;-69
2021/06/10 02:00:01;;;;;;;1.95;1.75;;;16.80;99.90;;;16.41;85.99;101862.38;4167760;28;20034;-69
2021/06/10 02:02:04;;;;;;;1.40;1.15;;;16.70;99.90;;;16.41;86.34;101871.19;4151870;28;20520;-69
2021/06/10 02:04:08;;;;;;;2.75;1.88;;;16.70;99.90;;;16.45;86.35;101864.53;4173575;28;20028;-68
2021/06/10 02:06:10;;;;;;;1.55;1.10;;;16.60;99.90;;;16.41;86.28;101865.88;4178208;28;20026;-69
2021/06/10 02:08:14;;;;;;;1.60;1.50;;;16.60;99.90;;;16.40;86.50;101858.88;4169436;28;20116;-69
2021/06/10 02:10:21;;;;;;;1.85;1.40;;;16.60;99.90;;;16.40;86.13;101853.53;4183398;28;20032;-69
2021/06/10 02:12:22;;;;;;;1.40;1.30;;;16.60;99.90;;;16.36;87.31;101860.22;4170743;28;20061;-68
2021/06/10 02:14:24;;;;;;;2.45;1.20;;;16.60;99.90;;;16.39;87.41;101865.22;4170357;28;20025;-68
2021/06/10 02:16:27;;;;;;;2.17;1.13;;;16.60;99.90;;;16.43;87.31;101869.19;4169568;28;20029;-68
2021/06/10 02:18:28;;;;;;;1.83;1.48;;;16.60;99.90;;;16.49;86.15;101860.53;4170516;28;20030;-68
2021/06/10 02:20:29;;;;;;;1.67;1.42;;;16.60;99.90;;;16.49;86.82;101871.19;4169387;28;20405;-68
2021/06/10 02:22:31;;;;;;;2.22;1.40;;;16.60;99.90;;;16.41;87.18;101871.19;4170425;28;20032;-68
2021/06/10 02:24:31;;;;;;;1.42;1.20;;;16.60;99.90;;;16.45;86.73;101866.38;4169901;28;20040;-68
2021/06/10 02:26:33;;;;;;;2.17;1.48;;;16.60;99.90;;;16.31;87.26;101862.53;4170480;28;20021;-69
2021/06/10 02:28:35;;;;;;;2.45;1.40;;;16.60;99.90;;;16.39;86.35;101867.88;4176751;28;20036;-68
2021/06/10 02:30:36;;;;;;;1.38;1.27;;;16.60;99.90;;;16.40;86.68;101858.88;4176965;28;20163;-69
2021/06/10 02:32:37;;;;;;;2.10;1.60;;;16.60;99.90;;;16.42;86.53;101866.69;4215487;28;20086;-68
2021/06/10 02:34:39;;;;;;;1.70;1.60;;;16.60;99.90;;;16.42;86.48;101862.22;4170095;28;20032;-69
2021/06/10 02:36:42;;;;;;;1.73;1.60;;;16.60;99.90;;;16.45;86.08;101864.53;4170121;28;20435;-69
2021/06/10 02:39:15;;;;;;;1.70;1.33;;;16.60;99.90;;;16.35;86.80;101860.38;4202154;28;20032;-68
2021/06/10 02:41:17;;;;;;;2.33;1.45;;;16.60;99.90;;;16.40;85.81;101872.19;4179094;28;20506;-68
2021/06/10 02:43:19;;;;;;;1.73;1.50;;;16.60;99.90;;;16.48;85.41;101853.56;4171227;28;20025;-68
2021/06/10 02:45:20;;;;;;;2.53;1.70;;;16.60;99.90;;;16.57;85.54;101857.91;4168772;28;20034;-69
2021/06/10 02:47:22;;;;;;;2.78;1.50;;;16.70;99.90;;;16.56;85.52;101858.06;4170031;28;20156;-68
2021/06/10 02:49:25;;;;;;;2.20;1.60;;;16.70;99.90;;;16.65;84.79;101867.72;4170136;28;20025;-68
2021/06/10 02:51:33;;;;;;;1.70;1.58;;;16.70;99.90;;;16.57;84.81;101857.06;4170105;28;20029;-68
2021/06/10 02:53:35;;;;;;;1.73;1.50;;;16.80;99.90;;;16.46;85.22;101857.38;4169878;28;20043;-69
2021/06/10 02:55:36;;;;;;;1.65;1.17;;;16.80;99.90;;;16.45;86.10;101869.03;4171322;28;20396;-69
2021/06/10 02:57:39;;;;;;;1.85;1.65;;;16.80;99.90;;;16.54;85.22;101876.06;4181221;28;20122;-69
2021/06/10 02:59:44;;;;;;;2.13;1.42;;;16.70;99.90;;;16.51;85.94;101865.69;4201585;28;20025;-69
2021/06/10 03:01:46;;;;;;;1.90;1.60;;;16.70;99.90;;;16.39;86.73;101867.03;4201582;28;20024;-69
2021/06/10 03:03:49;;;;;;;1.63;1.40;;;16.70;99.90;;;16.51;85.70;101866.53;4169574;28;20067;-69
2021/06/10 03:05:51;;;;;;;2.38;1.48;;;16.70;99.90;;;16.43;86.62;101879.00;4168654;28;20448;-68
2021/06/10 03:07:54;;;;;;;1.60;1.50;;;16.70;99.90;;;16.57;86.47;101886.38;4168610;28;20030;-68
2021/06/10 03:09:55;;;;;;;1.88;1.58;;;16.70;99.90;;;16.61;86.16;101877.03;4179900;28;20060;-69
2021/06/10 03:11:57;;;;;;;3.35;1.90;;;16.80;99.90;;;16.54;86.15;101876.91;4167974;28;20033;-69
2021/06/10 03:13:59;;;;;;;2.53;1.90;;;16.80;99.90;;;16.64;86.07;101865.19;4168552;28;20045;-70
2021/06/10 03:16:02;;;;;;;2.22;1.90;;;16.80;99.90;;;16.62;86.56;101859.22;4168478;28;20064;-68
2021/06/10 03:18:04;;;;;;;2.03;1.75;;;16.90;99.90;;;16.54;86.94;101841.44;4169732;28;20396;-69
2021/06/10 03:20:08;;;;;;;4.07;2.08;;;16.90;99.90;;;16.43;87.92;101837.22;4168603;28;20492;-68
2021/06/10 03:22:10;;;;;;;5.90;2.10;;;16.90;99.90;;;16.40;88.20;101821.56;4169681;28;20025;-68
2021/06/10 03:24:12;;;;;;;2.50;2.13;;;16.80;99.90;;;16.32;88.78;101832.25;4169367;28;20057;-68
2021/06/10 03:26:15;;;;;;;4.05;2.00;;;16.80;99.90;;;16.38;88.85;101828.91;4168209;28;20382;-68
2021/06/10 03:28:17;;;;;;;2.90;2.40;;;16.80;99.90;;;16.37;88.86;101818.41;4168468;28;20030;-69
2021/06/10 03:30:19;;;;;;;4.22;2.40;;;16.80;99.90;;;16.39;89.04;101832.41;4168432;28;20042;-68
2021/06/10 03:32:20;;;;;;;3.30;2.63;;;16.80;99.90;;;16.44;88.55;101838.91;4168394;28;20084;-68
2021/06/10 03:34:22;;;;;;;3.20;2.30;;;16.80;99.90;;;16.43;88.55;101836.38;4169391;28;20022;-68
2021/06/10 03:36:25;;;;;;;3.28;2.15;;;16.80;99.90;;;16.31;88.97;101854.53;4168040;28;20025;-69
2021/06/10 03:38:27;;;;;;;3.67;2.03;;;16.70;99.90;;;16.29;89.95;101853.88;4168158;28;20124;-69
2021/06/10 03:40:28;;;;;;;1.90;1.70;;;16.60;99.90;;;16.36;89.43;101852.22;4167921;28;20021;-68
2021/06/10 03:42:30;;;;;;;2.67;2.28;;;16.60;99.90;;;16.36;90.00;101857.56;4169295;28;20513;-68
2021/06/10 03:44:32;;;;;;;5.45;2.33;;;16.60;99.90;;;16.33;89.98;101836.59;4168271;28;20096;-69
2021/06/10 03:46:34;;;;;;;3.03;2.25;;;16.50;99.90;;;16.23;89.88;101832.41;4168166;28;20025;-69
2021/06/10 03:48:39;;;;;;;2.78;2.40;;;16.50;99.90;;;16.32;89.33;101840.22;4168002;28;20029;-69
2021/06/10 03:50:41;;;;;;;2.30;1.95;;;16.50;99.90;;;16.40;89.15;101837.56;4169240;28;20036;-69
2021/06/10 03:52:44;;;;;;;2.30;2.10;;;16.50;99.90;;;16.22;89.62;101844.88;4169337;28;20022;-69
2021/06/10 03:54:45;;;;;;;2.53;1.83;;;16.50;99.90;;;16.16;89.94;101845.53;4169114;28;20055;-68
2021/06/10 03:56:46;;;;;;;2.28;1.90;;;16.40;99.90;;;16.01;90.81;101841.88;4168145;28;20535;-68
2021/06/10 03:58:47;;;;;;;2.67;2.03;;;16.30;99.90;;;16.03;90.71;101845.22;4169054;28;20079;-68
2021/06/10 04:00:48;;;;;;;3.90;2.25;;;16.20;99.90;;;15.95;91.42;101842.53;4169012;28;20033;-69
2021/06/10 04:02:49;;;;;;;2.53;2.22;;;16.20;99.90;;;16.03;90.76;101832.75;4169223;28;20104;-68
2021/06/10 04:04:52;;;;;;;4.00;1.98;;;16.20;99.90;;;15.99;91.29;101851.84;4168034;28;20029;-69
2021/06/10 04:06:53;;;;;;;2.92;2.05;;;16.20;99.90;;;16.04;91.80;101847.69;4169173;28;20473;-68
2021/06/10 04:08:54;;;;;;;2.35;1.83;;;16.20;99.90;;;16.01;91.95;101858.66;4169258;28;20164;-68
2021/06/10 04:10:54;;;;;;;2.85;1.70;;;16.20;99.90;;;16.08;91.76;101861.50;4168824;28;20037;-68
2021/06/10 04:12:55;;;;;;;2.40;1.90;;;16.20;99.90;;;16.12;90.98;101854.03;4167760;28;20499;-68
2021/06/10 04:14:56;;;;;;;2.33;2.05;;;16.20;99.90;;;16.07;91.50;101867.81;4168797;28;20033;-68
2021/06/10 04:16:57;;;;;;;3.08;2.13;;;16.20;99.90;;;16.15;90.43;101854.53;4169005;28;20087;-68
2021/06/10 04:18:59;;;;;;;2.90;2.50;;;16.30;99.90;;;16.15;90.82;101851.88;4168905;28;20029;-68
2021/06/10 04:21:00;;;;;;;2.63;2.15;;;16.30;99.90;;;16.09;90.97;101839.22;4168808;28;20022;-68
2021/06/10 04:23:01;;;;;;;2.92;2.22;;;16.30;99.90;;;16.18;90.75;101843.56;4167652;28;20047;-68
2021/06/10 04:25:02;;;;;;;3.40;2.15;;;16.30;99.90;;;16.03;91.43;101842.56;4168090;28;20492;-68
2021/06/10 04:27:04;;;;;;;2.65;2.28;;;16.30;99.90;;;16.08;91.66;101837.56;4168872;28;20025;-68
2021/06/10 04:29:05;;;;;;;2.38;1.80;;;16.30;99.90;;;16.07;91.48;101838.53;4168729;28;20512;-68
2021/06/10 04:31:06;;;;;;;3.55;2.10;;;16.30;99.90;;;16.27;90.87;101849.72;4167555;28;20033;-68
2021/06/10 04:33:07;;;;;;;2.88;2.22;;;16.40;99.90;;;16.23;91.07;101843.91;4168913;28;20029;-68
2021/06/10 04:35:09;;;;;;;2.80;2.38;;;16.40;99.90;;;16.29;91.44;101856.53;4167605;28;20022;-68
2021/06/10 04:37:10;;;;;;;3.88;2.30;;;16.50;99.90;;;16.25;91.72;101865.00;4161500;28;20050;-68
2021/06/10 04:39:11;;;;;;;2.40;1.92;;;16.50;99.90;;;16.26;91.41;101854.22;4168337;28;20037;-68
2021/06/10 04:41:12;;;;;;;2.03;1.83;;;16.50;99.90;;;16.28;91.44;101856.69;4168507;28;20029;-68
2021/06/10 04:43:13;;;;;;;2.03;1.83;;;16.50;99.90;;;16.30;90.42;101852.88;4167344;28;20132;-68
2021/06/10 04:45:15;;;;;;;3.13;2.20;;;16.50;99.90;;;16.28;90.69;101854.88;4168625;28;20025;-68
2021/06/10 04:47:16;;;;;;;2.83;1.88;;;16.50;99.90;;;16.32;90.97;101848.22;4168567;28;20025;-68
2021/06/10 04:49:17;;;;;;;2.17;1.70;;;16.60;99.90;;;16.29;91.72;101855.72;4168406;28;20034;-69
2021/06/10 04:51:18;;;;;;;3.90;2.10;;;16.50;99.90;;;16.34;91.01;101856.88;4168786;28;20036;-68
2021/06/10 04:53:20;;;;;;;2.05;1.58;;;16.60;99.90;;;16.27;91.60;101855.03;4167381;28;20527;-68
2021/06/10 04:55:23;;;;;;;2.35;2.15;;;16.60;99.90;;;16.26;91.68;101867.53;4167110;28;20060;-68
2021/06/10 04:57:24;;;;;;;2.78;2.20;;;16.60;99.90;;;16.33;91.90;101865.03;4168310;28;20029;-68
2021/06/10 04:59:25;;;;;;;2.50;2.17;;;16.60;99.90;;;16.44;90.67;101868.19;4168475;28;20056;-68
2021/06/10 05:01:26;;;;;;;2.63;1.90;;;16.70;99.90;;;16.44;91.22;101865.53;4168364;28;20030;-68
2021/06/10 05:03:27;;;;;;;3.55;2.30;;;16.70;99.90;;;16.57;90.62;101857.06;4168424;28;20017;-68
2021/06/10 05:05:28;;;;;;;2.30;2.10;;;16.80;99.90;;;16.51;91.27;101850.56;4168468;28;20068;-68
2021/06/10 05:07:29;;;;;;;3.53;2.08;;;16.80;99.90;;;16.54;90.37;101854.75;4168435;28;20021;-68
2021/06/10 05:09:30;;;;;;;3.60;2.72;;;16.90;99.90;;;16.57;90.60;101857.91;4166933;28;20029;-68
2021/06/10 05:11:31;;;;;;;2.53;1.80;;;16.90;99.90;;;16.58;91.04;101867.56;4167066;28;20022;-68
2021/06/10 05:13:32;;;;;;;4.10;2.15;;;16.90;99.90;;;16.65;90.63;101861.56;4168425;28;20089;-68
2021/06/10 05:15:33;;;;;;;3.70;2.40;;;17.00;99.90;;;16.51;90.71;101855.88;4168175;28;20388;-70
2021/06/10 05:17:34;;;;;;;2.40;2.20;;;16.90;99.90;;;16.66;90.56;101861.41;4168199;28;20021;-68
2021/06/10 05:19:35;;;;;;;2.80;2.40;;;17.00;99.90;;;16.71;90.28;101863.53;4168260;28;20075;-68
2021/06/10 05:21:35;;;;;;;2.50;2.22;;;17.10;99.90;;;16.71;90.32;101856.38;4168076;28;20033;-68
2021/06/10 05:23:38;;;;;;;2.47;2.10;;;17.10;99.90;;;16.69;90.89;101853.06;4168292;28;20026;-68
2021/06/10 05:25:39;;;;;;;3.13;2.30;;;17.10;99.90;;;16.64;90.58;101838.56;4167259;28;20021;-68
2021/06/10 05:27:40;;;;;;;4.32;2.33;;;17.10;99.90;;;16.84;90.12;101855.88;4167957;28;20029;-69
2021/06/10 05:29:41;;;;;;;2.63;2.20;;;17.10;99.90;;;16.65;90.38;101834.91;4168081;28;20049;-68
2021/06/10 05:31:42;;;;;;;4.13;2.00;;;17.20;99.90;;;16.78;90.29;101862.72;4168262;28;20101;-68
2021/06/10 05:33:43;;;;;;;4.68;2.20;;;17.30;99.90;;;16.83;90.42;101859.53;4167056;28;20522;-68
2021/06/10 05:35:44;;;;;;;2.55;1.88;;;17.30;99.90;;;16.87;90.42;101863.53;4168304;28;20022;-68
2021/06/10 05:37:45;;;;;;;2.38;2.17;;;17.30;99.90;;;16.94;89.47;101861.81;4170884;28;20046;-68
2021/06/10 05:39:46;;;;;;;2.45;2.25;;;17.30;99.90;;;17.05;88.99;101870.28;4171086;28;20033;-68
2021/06/10 05:41:47;;;;;;;3.33;2.28;;;17.40;99.90;;;17.08;88.92;101869.16;4171276;28;20029;-69
2021/06/10 05:43:48;;;;;;;3.30;2.05;;;17.50;99.90;;;17.12;88.49;101863.28;4170985;28;20032;-68
2021/06/10 05:45:51;;;;;;;2.53;2.20;;;17.50;99.90;;;17.06;89.38;101869.31;4171031;28;20025;-68
2021/06/10 05:47:52;;;;;;;2.35;2.15;;;17.50;99.90;;;17.11;89.30;101869.59;4170852;28;20033;-68
2021/06/10 05:49:53;;;;;;;2.97;2.63;;;17.50;99.90;;;17.04;89.51;101859.81;4171041;28;20373;-68
2021/06/10 05:51:54;;;;;;;2.65;2.45;;;17.60;99.90;;;17.13;89.96;101872.13;4170988;28;20036;-68
2021/06/10 05:53:55;;;;;;;2.95;1.90;;;17.60;99.90;;;17.28;88.99;101870.41;4171091;28;20547;-68
2021/06/10 05:55:55;;;;;;;2.97;2.25;;;17.70;99.90;;;17.42;87.80;101872.34;4170849;28;20041;-68
2021/06/10 05:57:56;;;;;;;2.35;1.98;;;17.90;99.90;;;17.56;87.91;101866.31;4170930;28;20029;-69
2021/06/10 05:59:57;;;;;;;2.40;1.80;;;18.00;99.90;;;17.65;87.79;101861.78;4170973;28;20026;-69
2021/06/10 06:01:58;;;;;;;4.78;2.63;;;18.10;99.90;;;17.75;86.35;101851.69;4174065;28;20028;-70
2021/06/10 06:03:59;;;;;;;4.35;2.47;;;18.20;99.90;;;17.76;85.90;101849.88;4170561;28;20068;-69
2021/06/10 06:06:00;;;;;;;2.70;2.33;;;18.40;99.90;;;17.83;85.94;101859.66;4170801;28;20021;-69
2021/06/10 06:08:02;;;;;;;3.90;2.40;;;18.50;99.90;;;17.95;85.52;101862.78;4170707;28;20065;-69
2021/06/10 06:10:05;;;;;;;3.30;2.65;;;18.50;99.90;;;18.00;84.94;101860.41;4170421;28;20099;-69
2021/06/10 06:12:09;;;;;;;3.50;2.47;;;18.60;99.90;;;18.00;85.36;101871.91;4169612;28;20025;-69
2021/06/10 06:14:13;;;;;;;4.80;2.40;;;18.60;99.90;;;18.00;84.95;101860.41;4153134;28;20026;-70
2021/06/10 06:16:18;;;;;;;2.60;2.22;;;18.60;99.90;;;17.96;86.01;101878.59;4170716;28;20026;-70
2021/06/10 06:18:19;;;;;;;3.17;2.20;;;18.50;99.90;;;17.97;85.26;101871.44;4169308;28;20080;-69
2021/06/10 06:20:22;;;;;;;3.70;2.83;;;18.50;99.90;;;17.82;85.39;101865.19;4170639;28;20113;-69
2021/06/10 06:22:23;;;;;;;3.50;2.22;;;18.40;99.90;;;17.75;86.36;101869.53;4169593;28;20026;-70
2021/06/10 06:24:24;;;;;;;3.40;2.67;;;18.20;99.90;;;17.70;85.69;101870.09;4168790;28;20436;-70
2021/06/10 06:26:39;;;;;;;3.70;2.65;;;18.20;99.90;;;17.71;86.34;101877.09;4170453;28;20025;-69
2021/06/10 06:28:40;;;;;;;3.53;2.75;;;18.20;99.90;;;17.52;86.42;101856.97;4170365;28;20037;-69
2021/06/10 06:30:41;;;;;;;2.58;2.30;;;18.20;99.90;;;17.58;86.79;101880.31;4170203;28;20032;-69
2021/06/10 06:32:42;;;;;;;3.03;2.53;;;18.20;99.90;;;17.50;87.28;101885.63;4170280;28;20416;-69
2021/06/10 06:34:43;;;;;;;3.83;2.97;;;18.20;99.90;;;17.56;87.32;101884.97;4170134;28;20032;-69
2021/06/10 06:36:44;;;;;;;3.15;2.65;;;18.20;99.90;;;17.61;87.82;101881.81;4170258;28;20056;-69
2021/06/10 06:38:46;;;;;;;4.00;2.83;;;18.20;99.90;;;17.77;87.21;101888.91;4170223;28;20034;-69
2021/06/10 06:40:48;;;;;;;4.07;2.60;;;18.30;99.90;;;17.75;87.85;101877.56;4169977;28;20119;-69
2021/06/10 06:42:49;;;;;;;3.53;2.65;;;18.40;99.90;;;17.90;88.00;101870.47;4168806;28;20435;-69
2021/06/10 06:44:52;;;;;;;3.78;2.78;;;18.50;99.90;;;17.97;86.14;101871.44;4169809;28;20079;-69
2021/06/10 06:46:52;;;;;;;3.45;2.67;;;18.50;99.90;;;17.99;85.75;101856.06;4169620;28;20021;-69
2021/06/10 06:48:53;;;;;;;3.75;2.88;;;18.60;99.90;;;18.14;85.88;101872.97;4170065;28;20021;-71
2021/06/10 06:50:56;;;;;;;3.08;2.78;;;18.70;99.90;;;18.18;85.61;101875.13;4169936;28;20503;-69
2021/06/10 06:52:57;;;;;;;4.80;3.88;;;18.80;99.90;;;18.15;84.19;101888.00;4168991;28;20040;-69
2021/06/10 06:54:58;;;;;;;6.18;3.40;;;18.80;99.90;;;18.14;84.86;101894.34;4169664;28;20089;-68
2021/06/10 06:56:59;;;;;;;4.22;2.85;;;18.90;99.90;;;18.00;85.97;101892.44;4169826;28;20033;-67
2021/06/10 06:59:00;;;;;;;3.85;3.53;;;19.00;99.90;;;18.14;85.51;101905.84;4169956;28;20408;-69
2021/06/10 07:01:01;;;;;;;6.13;2.90;;;18.90;99.90;;;18.18;85.51;101884.97;4169956;28;20030;-69
2021/06/10 07:03:02;;;;;;;4.20;2.95;;;19.00;99.90;;;18.16;85.93;101892.31;4169776;28;20018;-69
2021/06/10 07:05:04;;;;;;;3.47;2.90;;;19.00;99.90;;;18.12;86.35;101886.53;4169887;28;20064;-70
2021/06/10 07:07:05;;;;;;;7.18;3.45;;;19.00;99.90;;;18.21;85.75;101890.81;4169932;28;20028;-70
2021/06/10 07:09:06;;;;;;;3.70;3.20;;;19.00;99.90;;;18.28;85.90;101896.22;4169520;28;20041;-71
2021/06/10 07:11:07;;;;;;;4.22;2.95;;;19.00;99.90;;;18.36;85.60;101896.19;4169705;28;20026;-70
2021/06/10 07:13:08;;;;;;;4.00;3.25;;;19.00;99.90;;;18.01;86.42;101883.44;4169867;28;20044;-70
2021/06/10 07:15:10;;;;;;;3.80;3.42;;;19.00;99.90;;;17.92;86.60;101887.97;4169802;28;20029;-70
2021/06/10 07:17:11;;;;;;;4.55;3.45;;;19.00;99.90;;;17.98;87.27;101894.47;4168757;28;20025;-71
2021/06/10 07:19:12;;;;;;;4.20;2.70;;;19.00;99.90;;;18.30;86.23;101890.72;4169617;28;20033;-70
2021/06/10 07:21:13;;;;;;;4.57;3.70;;;19.10;99.90;;;17.95;87.46;101884.94;4169498;28;20413;-71
2021/06/10 07:23:14;;;;;;;5.05;3.22;;;19.10;99.90;;;18.27;86.79;101894.59;4169571;28;20076;-69
2021/06/10 07:25:15;;;;;;;3.35;3.05;;;19.10;99.90;;;18.39;86.17;101886.97;4169323;28;20030;-69
2021/06/10 07:27:17;;;;;;;3.60;3.05;;;19.20;99.90;;;18.43;86.30;101899.00;4169712;28;20052;-70
2021/06/10 07:29:19;;;;;;;3.75;2.83;;;19.40;99.90;;;18.61;85.62;101902.19;4169511;28;20025;-69
2021/06/10 07:31:19;;;;;;;3.78;2.80;;;19.50;99.90;;;18.62;85.48;101906.53;4169132;28;20036;-69
2021/06/10 07:33:20;;;;;;;2.75;2.40;;;19.60;99.90;;;18.96;84.77;101903.38;4168300;28;20053;-69
2021/06/10 07:35:22;;;;;;;3.83;2.90;;;19.80;99.90;;;18.71;85.24;101900.09;4169360;28;20033;-68
2021/06/10 07:37:23;;;;;;;5.78;2.67;;;19.80;99.90;;;18.93;84.74;101901.06;4169201;28;20060;-70
2021/06/10 07:39:24;;;;;;;3.80;3.05;;;20.00;99.90;;;19.01;83.73;101904.50;4168931;28;20025;-71
2021/06/10 07:41:25;;;;;;;3.40;3.10;;;20.20;99.90;;;19.26;83.37;101905.06;4169515;28;20079;-71
2021/06/10 07:43:26;;;;;;;4.60;3.20;;;20.50;99.90;;;19.41;81.66;101908.59;4169278;28;20056;-70
2021/06/10 07:45:29;;;;;;;4.13;2.80;;;20.80;99.90;;;19.83;80.94;101915.94;4169329;28;20033;-70
2021/06/10 07:47:30;;;;;;;5.65;3.33;;;21.20;99.90;;;20.29;78.15;101900.38;4167825;28;20044;-71
2021/06/10 07:49:34;;;;;;;3.65;2.55;;;21.50;99.90;;;20.49;78.13;101893.34;4168032;28;20037;-71
2021/06/10 07:51:35;;;;;;;4.88;2.58;;;21.60;99.90;;;20.40;77.95;101894.50;4169108;28;20028;-71
2021/06/10 07:53:38;;;;;;;4.25;2.45;;;21.70;99.90;;;20.28;78.41;101891.50;4169049;28;20045;-71
2021/06/10 07:55:39;;;;;;;3.67;2.90;;;21.80;99.90;;;20.20;77.91;101901.50;4168811;28;20033;-71
2021/06/10 07:57:39;;;;;;;2.70;2.10;;;22.00;99.90;;;20.71;77.37;101900.34;4167920;28;20029;-71
2021/06/10 07:59:41;;;;;;;4.28;1.98;;;22.20;99.90;;;20.75;76.47;101901.63;4168186;28;20104;-71
2021/06/10 08:01:41;;;;;;;2.83;2.45;;;22.20;99.90;;;20.70;75.60;101901.34;4168872;28;20032;-71
2021/06/10 08:03:44;;;;;;;4.57;2.95;;;22.30;99.90;;;20.31;77.45;101874.22;4168895;28;20026;-71
2021/06/10 08:05:46;;;;;;;5.00;2.50;;;22.20;99.90;;;20.40;77.08;101897.16;4168969;28;20069;-71
2021/06/10 08:07:47;;;;;;;3.10;2.22;;;22.10;99.90;;;20.26;78.41;101900.75;4167688;28;20072;-71
2021/06/10 08:09:48;;;;;;;3.47;2.03;;;22.10;99.90;;;20.66;77.58;101897.44;4168557;28;20447;-71
2021/06/10 08:11:49;;;;;;;3.30;2.60;;;22.00;99.90;;;20.65;76.37;101894.94;4168534;28;20032;-71
2021/06/10 08:13:51;;;;;;;3.05;2.10;;;22.00;99.90;;;20.74;77.02;101905.31;4168868;28;20498;-71
2021/06/10 08:15:52;;;;;;;2.92;1.70;;;22.00;99.90;;;20.94;76.81;101903.63;4168911;28;20024;-70
2021/06/10 08:17:53;;;;;;;2.38;1.98;;;22.00;99.90;;;20.78;76.28;101901.25;4168648;28;20400;-71
2021/06/10 08:19:54;;;;;;;1.92;1.60;;;22.00;99.90;;;21.05;75.45;101914.84;4167370;28;20068;-70
2021/06/10 08:21:55;;;;;;;3.70;1.70;;;22.10;99.90;;;20.69;76.48;101906.94;4168734;28;20071;-71
2021/06/10 08:23:57;;;;;;;1.50;1.25;;;22.20;99.90;;;21.15;75.29;101907.28;4167230;28;20057;-71
2021/06/10 08:25:59;;;;;;;2.08;1.80;;;22.30;99.90;;;20.89;75.95;101911.44;4168533;28;20030;-71
2021/06/10 08:28:04;;;;;;;1.52;1.13;;;22.40;99.90;;;20.96;73.75;101906.94;4168410;28;20549;-71
2021/06/10 08:30:07;;;;;;;2.28;1.00;;;22.40;99.90;;;20.79;74.20;101910.09;4167419;28;20133;-69